All
Smalandsstenar Airport (Smalandsstenar) ESMY Weather
There is no TAF data available at ESMY or any nearby airports.
There is no METAR data available at ESMY. Showing METAR data for ESMV (27 mi E).
Recent ESMV METAR history (no data for ESMY)
| Date | Time (CEST) | Flight Rules | Wind Dir. | Speed | Type | Height AGL (ft) | Visibility | Temp (°C) | Temp (°F) | Dew Point (°C) | Dew Point (°F) | Rel. Humid. | Pressure | Density Altitude | Remarks |
|---|---|---|---|---|---|---|---|---|---|---|---|---|---|---|---|
| 07-May | 09:20PM | VFR | 350° | 3 kt | 10000 meters | 10° | 50° | -5° | 23° | 34% | 1017 mb | -156 ft | |||
| 07-May | 08:50PM | VFR | 10° | 6 kt | 10000 meters | 12° | 53° | -6° | 21° | 28% | 1017 mb | 84 ft | |||
| 07-May | 08:20PM | VFR | 20° | 6 kt | 10000 meters | 13° | 55° | -6° | 21° | 26% | 1016 mb | 234 ft | |||
| 07-May | 07:50PM | VFR | Variable | 2 kt | 10000 meters | 14° | 57° | -7° | 19° | 23% | 1016 mb | 354 ft | |||
| 07-May | 07:20PM | VFR | 350° | 3 kt | 10000 meters | 16° | 60° | -9° | 15° | 17% | 1016 mb | 594 ft | |||
| 07-May | 06:50PM | VFR | Variable | 2 kt | 10000 meters | 16° | 60° | -10° | 14° | 16% | 1015 mb | 623 ft | |||
| 07-May | 06:20PM | VFR | Variable | 2 kt | 10000 meters | 16° | 60° | -10° | 14° | 16% | 1015 mb | 623 ft | |||
| 07-May | 05:50PM | VFR | 60° | 3 kt | 10000 meters | 16° | 60° | -10° | 14° | 16% | 1015 mb | 623 ft | |||
| 07-May | 05:20PM | VFR | Variable | 2 kt | 10000 meters | 16° | 60° | -10° | 14° | 16% | 1015 mb | 623 ft | |||
| 07-May | 04:50PM | VFR | 230° | 4 kt | 10000 meters | 16° | 60° | -11° | 12° | 15% | 1015 mb | 623 ft | |||
| 07-May | 04:20PM | VFR | 140° | 3 kt | 10000 meters | 16° | 60° | -12° | 10° | 13% | 1015 mb | 623 ft | |||
| 07-May | 03:50PM | VFR | 240° | 5 kt | 10000 meters | 16° | 60° | -12° | 10° | 13% | 1015 mb | 623 ft | |||
| 07-May | 03:20PM | VFR | Variable | 3 kt | 10000 meters | 15° | 59° | -13° | 8° | 13% | 1015 mb | 503 ft | |||
| 07-May | 02:50PM | VFR | Variable | 5 kt | 10000 meters | 15° | 59° | -13° | 8° | 13% | 1015 mb | 503 ft | |||
| 07-May | 02:20PM | VFR | Variable | 5 kt | 10000 meters | 15° | 59° | -12° | 10° | 14% | 1015 mb | 503 ft | |||
| 07-May | 01:50PM | VFR | Variable | 6 kt | 10000 meters | 15° | 59° | -12° | 10° | 14% | 1015 mb | 503 ft | |||
| 07-May | 01:20PM | VFR | 180° | 5 kt | 10000 meters | 14° | 57° | -12° | 10° | 15% | 1015 mb | 383 ft | |||
| 07-May | 12:50PM | VFR | Variable | 5 kt | 10000 meters | 14° | 57° | -12° | 10° | 15% | 1015 mb | 383 ft | |||
| 07-May | 12:20PM | VFR | Variable | 4 kt | 10000 meters | 13° | 55° | -11° | 12° | 18% | 1015 mb | 263 ft | |||
| 07-May | 11:50AM | VFR | Variable | 4 kt | 10000 meters | 13° | 55° | -11° | 12° | 18% | 1015 mb | 263 ft | |||
| 07-May | 11:20AM | VFR | Variable | 4 kt | 10000 meters | 12° | 53° | -10° | 14° | 20% | 1015 mb | 143 ft | |||
| 07-May | 10:50AM | VFR | Variable | 4 kt | 10000 meters | 12° | 53° | -8° | 17° | 24% | 1015 mb | 143 ft | |||
| 07-May | 10:20AM | VFR | 250° | 5 kt | 10000 meters | 11° | 51° | -6° | 21° | 30% | 1015 mb | 23 ft | |||
| 07-May | 09:50AM | VFR | Variable | 4 kt | 10000 meters | 11° | 51° | -2° | 28° | 40% | 1014 mb | 53 ft |
Login
| Your browser is unsupported. upgrade your browser |
